ペトロパブロフスク・カムチャツキー の空港の天気 - METARとTAF

ペトロパブロフスク・カムチャツキー空港 ( UHPP / PKC ) - ロシア ペトロパブロフスク・カムチャツキー
飛行場実況気象(Metar)
観測時間09/23 21:00 MAGT (09/23 10:00 UTC)
風向・風速不定 1m/s
視程10km以上
天気現象
なし
気温8℃
湿度87%
気圧1019hPa
METARUHPP 231000Z VRB01MPS 9999 NSC 08/06 Q1019 R34L/CLRD70 NOSIG RMK QFE761/1015
過去の天気等 Google飛行場航空写真 Wunderground天気予報

過去48時間のMETAR

飛行場予報(TAF)
発表時間: 9/23 18:49 MAGT (9/23 07:49 UTC)
予報対象時間: 23日20時 MAGT ~ 25日2時 MAGT
風向・風速北 3m/s 瞬間風速 8m/s
視程10km以上
なし
24日1時 MAGT ~ 24日9時 MAGT に一時的に
視程600m
天気現象
全天を覆う雲 鉛直視程 60m
24日11時 MAGT から
風向・風速南 3m/s 瞬間風速 8m/s
視程10km以上
全天の4割程度の雲 雲底高度 1,220m
24日21時 MAGT から
風向・風速北 3m/s
視程10km以上
なし
TAF UHPP 230749Z 2309/2415 01003G08MPS 9999 NSC
TEMPO 2314/2322 0600 FG VV002
FM240000 17003G08MPS 9999 SCT040
FM241000 01003MPS 9999 NSC